createdAt,value
2022-09-01T00:03:39.683Z,12.77
2022-09-01T00:08:42.547Z,12.88
2022-09-01T00:13:45.195Z,12.84
2022-09-01T00:18:50.088Z,12.82
2022-09-01T00:23:52.666Z,12.80
2022-09-01T00:28:55.362Z,12.65
2022-09-01T00:33:58.391Z,12.60
2022-09-01T00:39:00.979Z,12.60
2022-09-01T00:44:07.019Z,12.56
2022-09-01T00:49:20.303Z,12.60
2022-09-01T00:54:27.435Z,12.53
2022-09-01T00:59:30.403Z,12.48
2022-09-01T01:04:32.791Z,12.46
2022-09-01T01:09:37.017Z,12.28
2022-09-01T01:14:40.121Z,12.32
2022-09-01T01:20:08.608Z,12.40
2022-09-01T01:25:12.970Z,12.21
2022-09-01T01:30:18.278Z,12.35
2022-09-01T01:35:23.480Z,12.22
2022-09-01T01:40:26.403Z,12.32
2022-09-01T01:45:29.448Z,12.29
2022-09-01T01:50:34.694Z,12.24
2022-09-01T01:55:38.423Z,12.21
2022-09-01T02:00:44.577Z,12.07
2022-09-01T02:05:49.190Z,12.08
2022-09-01T02:10:57.951Z,11.99
2022-09-01T02:16:04.230Z,11.98
2022-09-01T02:21:15.103Z,11.90
2022-09-01T02:26:23.832Z,11.96
2022-09-01T02:31:28.164Z,11.87
2022-09-01T02:36:35.244Z,11.68
2022-09-01T02:41:38.130Z,11.62
2022-09-01T02:46:44.536Z,11.36
2022-09-01T02:51:49.447Z,11.53
2022-09-01T02:56:54.641Z,11.46
2022-09-01T03:01:58.984Z,11.37
2022-09-01T03:07:04.219Z,11.17
2022-09-01T03:12:07.298Z,11.17
2022-09-01T03:17:11.360Z,11.15
2022-09-01T03:22:13.842Z,11.16
2022-09-01T03:27:17.171Z,11.30
2022-09-01T03:32:19.968Z,11.17
2022-09-01T03:37:23.555Z,11.35
2022-09-01T03:42:31.123Z,11.39
2022-09-01T03:47:33.763Z,11.53
2022-09-01T03:52:37.155Z,11.88
2022-09-01T03:57:42.657Z,12.18
2022-09-01T04:02:45.455Z,11.73
2022-09-01T04:07:53.668Z,11.96
2022-09-01T04:12:59.227Z,12.21
2022-09-01T04:18:09.573Z,12.57
2022-09-01T04:23:13.316Z,12.69
2022-09-01T04:28:23.226Z,12.91
2022-09-01T04:33:27.883Z,12.82
2022-09-01T04:38:35.798Z,12.84
2022-09-01T04:43:38.315Z,13.23
2022-09-01T04:48:43.454Z,13.39
2022-09-01T04:53:49.663Z,13.55
2022-09-01T04:58:55.980Z,13.87
2022-09-01T05:04:01.580Z,13.94
2022-09-01T05:09:14.957Z,14.43
2022-09-01T05:14:48.806Z,14.86
2022-09-01T05:19:54.861Z,14.67
2022-09-01T05:24:58.270Z,14.26
2022-09-01T05:30:01.348Z,14.42
2022-09-01T05:35:08.439Z,14.52
2022-09-01T05:40:16.442Z,14.76
2022-09-01T05:45:23.517Z,14.69
2022-09-01T05:50:28.345Z,14.81
2022-09-01T05:55:35.734Z,14.68
2022-09-01T06:00:38.665Z,14.68
2022-09-01T06:05:42.462Z,15.18
2022-09-01T06:10:47.015Z,15.15
2022-09-01T06:15:56.114Z,16.18
2022-09-01T06:20:59.087Z,16.02
2022-09-01T06:26:01.843Z,16.58
2022-09-01T06:31:09.661Z,16.77
2022-09-01T06:36:12.926Z,17.07
2022-09-01T06:41:15.671Z,16.97
2022-09-01T06:46:18.243Z,17.02
2022-09-01T06:51:23.149Z,17.10
2022-09-01T06:56:30.995Z,17.42
2022-09-01T07:01:35.699Z,18.03
2022-09-01T07:12:25.910Z,18.23
2022-09-01T07:17:31.084Z,18.59
2022-09-01T07:22:36.130Z,18.77
2022-09-01T07:42:31.639Z,18.45
2022-09-01T07:43:55.713Z,19.10
2022-09-01T07:49:51.405Z,19.54
2022-09-01T07:54:40.571Z,19.85
2022-09-01T07:59:43.310Z,20.26
2022-09-01T08:04:55.820Z,20.18
2022-09-01T08:10:01.404Z,20.90
2022-09-01T08:15:41.480Z,21.42
2022-09-01T08:20:31.484Z,21.54
2022-09-01T08:26:00.133Z,20.52
2022-09-01T08:31:11.429Z,20.54
2022-09-01T08:36:20.232Z,21.18
2022-09-01T08:41:37.453Z,20.60
2022-09-01T08:46:42.507Z,20.19
2022-09-01T08:52:12.694Z,18.44
2022-09-01T08:57:21.995Z,17.88
2022-09-01T09:03:07.661Z,17.73
2022-09-01T09:08:10.936Z,18.08
2022-09-01T09:13:25.007Z,18.82
2022-09-01T09:18:55.790Z,19.25
2022-09-01T09:24:24.593Z,18.67
2022-09-01T09:29:29.983Z,18.22
2022-09-01T09:34:36.843Z,17.77
2022-09-01T09:39:40.209Z,17.24
2022-09-01T09:44:51.265Z,17.46
2022-09-01T09:50:14.061Z,17.16
2022-09-01T09:55:23.649Z,17.38
2022-09-01T10:00:29.812Z,17.27
2022-09-01T10:05:58.217Z,17.63
2022-09-01T10:11:00.872Z,17.65
2022-09-01T10:16:11.340Z,17.64
2022-09-01T10:21:24.194Z,17.89
2022-09-01T10:26:36.365Z,18.14
2022-09-01T10:31:41.091Z,17.90
2022-09-01T10:36:47.044Z,19.00
2022-09-01T10:41:59.641Z,19.18
2022-09-01T10:47:27.168Z,19.13
2022-09-01T10:52:43.440Z,19.49
2022-09-01T10:58:08.546Z,20.38
2022-09-01T11:03:30.598Z,20.69
2022-09-01T11:08:34.124Z,20.18
2022-09-01T11:13:49.029Z,21.12
2022-09-01T11:18:52.587Z,20.39
2022-09-01T11:24:39.150Z,20.44
2022-09-01T11:30:01.311Z,20.81
2022-09-01T11:35:06.886Z,19.98
2022-09-01T11:40:10.568Z,19.20
2022-09-01T11:45:23.658Z,19.21
2022-09-01T11:50:34.755Z,19.24
2022-09-01T11:55:42.767Z,18.96
2022-09-01T12:00:45.876Z,19.05
2022-09-01T12:05:51.165Z,19.33
2022-09-01T12:11:04.118Z,19.51
2022-09-01T12:16:24.620Z,19.87
2022-09-01T12:21:27.014Z,20.43
2022-09-01T12:26:30.598Z,20.65
2022-09-01T12:31:33.172Z,21.14
2022-09-01T12:36:37.125Z,21.43
2022-09-01T12:41:40.729Z,21.01
2022-09-01T12:46:46.615Z,21.50
2022-09-01T12:51:49.318Z,21.41
2022-09-01T12:56:51.781Z,21.15
2022-09-01T13:01:54.413Z,21.13
2022-09-01T13:07:02.026Z,21.50
2022-09-01T13:12:33.927Z,20.91
2022-09-01T13:17:38.385Z,20.10
2022-09-01T13:22:42.701Z,19.88
2022-09-01T13:27:47.572Z,19.98
2022-09-01T13:38:16.311Z,19.67
2022-09-01T13:43:22.311Z,19.40
2022-09-01T13:49:02.136Z,19.81
2022-09-01T13:53:48.171Z,20.18
2022-09-01T13:58:50.565Z,20.23
2022-09-01T14:03:55.107Z,20.20
2022-09-01T14:09:00.881Z,20.22
2022-09-01T14:14:03.635Z,20.40
2022-09-01T14:19:06.714Z,20.56
2022-09-01T14:24:09.275Z,20.59
2022-09-01T14:29:12.020Z,20.49
2022-09-01T14:34:16.421Z,21.40
2022-09-01T14:39:18.826Z,22.04
2022-09-01T14:44:21.343Z,22.31
2022-09-01T14:49:23.898Z,22.94
2022-09-01T14:54:26.341Z,22.71
2022-09-01T14:59:28.944Z,22.07
2022-09-01T15:04:32.282Z,21.42
2022-09-01T15:09:35.733Z,20.99
2022-09-01T15:14:38.500Z,21.05
2022-09-01T15:19:40.921Z,20.68
2022-09-01T15:24:44.646Z,21.00
2022-09-01T15:29:49.074Z,20.40
2022-09-01T15:34:51.624Z,20.39
2022-09-01T15:39:54.061Z,20.32
2022-09-01T15:44:56.439Z,20.47
2022-09-01T15:49:59.019Z,20.21
2022-09-01T15:55:01.813Z,19.69
2022-09-01T16:00:05.714Z,19.69
2022-09-01T16:05:14.651Z,20.07
2022-09-01T16:10:17.095Z,20.13
2022-09-01T16:15:22.378Z,20.53
2022-09-01T16:20:28.630Z,19.99
2022-09-01T16:25:34.744Z,20.17
2022-09-01T16:30:37.735Z,19.97
2022-09-01T16:35:55.969Z,19.82
2022-09-01T16:41:24.406Z,19.71
2022-09-01T16:46:35.676Z,19.53
2022-09-01T16:51:43.243Z,19.05
2022-09-01T16:56:51.568Z,18.78
2022-09-01T17:02:25.841Z,18.88
2022-09-01T17:07:40.208Z,18.66
2022-09-01T17:12:50.657Z,18.58
2022-09-01T17:18:06.306Z,18.34
2022-09-01T17:23:14.024Z,18.10
2022-09-01T17:28:31.525Z,17.87
2022-09-01T17:34:02.669Z,17.69
2022-09-01T17:39:16.814Z,17.39
2022-09-01T17:44:37.831Z,17.22
2022-09-01T17:49:52.395Z,17.10
2022-09-01T17:55:04.192Z,17.04
2022-09-01T18:00:08.684Z,16.71
2022-09-01T18:05:24.320Z,16.01
2022-09-01T18:10:35.197Z,15.79
2022-09-01T18:15:52.481Z,15.55
2022-09-01T18:20:57.374Z,15.44
2022-09-01T18:26:09.306Z,15.49
2022-09-01T18:31:17.710Z,15.28
2022-09-01T18:36:38.971Z,15.17
2022-09-01T18:41:56.032Z,15.13
2022-09-01T18:47:05.310Z,14.96
2022-09-01T18:52:31.206Z,14.87
2022-09-01T18:57:40.170Z,14.85
2022-09-01T19:02:54.212Z,14.65
2022-09-01T19:07:59.389Z,14.38
2022-09-01T19:13:12.165Z,14.25
2022-09-01T19:18:32.040Z,13.98
2022-09-01T19:23:56.911Z,13.70
2022-09-01T19:29:02.308Z,13.63
2022-09-01T19:34:09.799Z,13.47
2022-09-01T19:39:14.459Z,13.33
2022-09-01T19:44:39.709Z,13.30
2022-09-01T19:49:55.939Z,13.15
2022-09-01T19:55:03.056Z,13.14
2022-09-01T20:00:13.804Z,13.05
2022-09-01T20:05:46.461Z,12.92
2022-09-01T20:11:04.409Z,12.92
2022-09-01T20:16:40.248Z,12.87
2022-09-01T20:21:45.374Z,12.83
2022-09-01T20:26:47.778Z,12.87
2022-09-01T20:31:53.254Z,12.88
2022-09-01T20:37:02.058Z,12.75
2022-09-01T20:42:13.287Z,12.57
2022-09-01T20:47:15.699Z,12.42
2022-09-01T20:52:39.217Z,12.40
2022-09-01T20:58:11.902Z,12.25
2022-09-01T21:03:33.679Z,12.19
2022-09-01T21:08:45.518Z,12.15
2022-09-01T21:14:29.564Z,12.14
2022-09-01T21:19:58.572Z,12.10
2022-09-01T21:25:00.918Z,12.00
2022-09-01T21:30:12.413Z,11.79
2022-09-01T21:35:18.070Z,11.66
2022-09-01T21:40:22.535Z,11.72
2022-09-01T21:45:25.330Z,11.82
2022-09-01T21:50:28.001Z,11.83
2022-09-01T21:55:31.545Z,11.77
2022-09-01T22:00:36.493Z,11.71
2022-09-01T22:05:44.963Z,11.73
2022-09-01T22:10:50.105Z,11.69
2022-09-01T22:15:54.037Z,11.58
2022-09-01T22:21:07.188Z,11.58
2022-09-01T22:26:15.419Z,11.41
2022-09-01T22:31:20.554Z,11.37
2022-09-01T22:36:31.607Z,11.31
2022-09-01T22:41:34.741Z,11.32
2022-09-01T22:46:38.612Z,11.32
2022-09-01T22:51:42.592Z,11.33
2022-09-01T22:56:45.348Z,11.25
2022-09-01T23:01:51.616Z,11.14
2022-09-01T23:06:54.495Z,11.11
2022-09-01T23:11:56.982Z,11.02
2022-09-01T23:16:59.512Z,10.89
2022-09-01T23:22:03.292Z,10.76
2022-09-01T23:27:05.750Z,10.82
2022-09-01T23:32:08.253Z,10.59
2022-09-01T23:37:10.851Z,10.78
2022-09-01T23:42:13.270Z,10.90
2022-09-01T23:47:16.152Z,10.96
2022-09-01T23:52:18.506Z,10.92
2022-09-01T23:57:21.275Z,10.96
